createdAt,value
2019-03-28T00:01:38.749Z,18.13
2019-03-28T00:04:07.867Z,18.03
2019-03-28T00:06:36.839Z,16.67
2019-03-28T00:09:08.166Z,20.20
2019-03-28T00:11:37.934Z,17.30
2019-03-28T00:14:10.596Z,16.83
2019-03-28T00:16:42.071Z,17.47
2019-03-28T00:19:12.634Z,18.83
2019-03-28T00:21:41.756Z,17.57
2019-03-28T00:24:24.165Z,17.83
2019-03-28T00:26:53.543Z,17.27
2019-03-28T00:29:24.395Z,19.30
2019-03-28T00:31:53.674Z,17.90
2019-03-28T00:34:24.242Z,17.47
2019-03-28T00:36:53.583Z,17.87
2019-03-28T00:39:22.733Z,18.33
2019-03-28T00:41:54.494Z,16.10
2019-03-28T00:44:25.308Z,20.30
2019-03-28T00:46:55.902Z,19.50
2019-03-28T00:49:25.015Z,18.70
2019-03-28T00:51:54.381Z,19.37
2019-03-28T00:54:23.846Z,18.40
2019-03-28T00:56:54.764Z,17.37
2019-03-28T00:59:24.308Z,16.93
2019-03-28T01:01:53.643Z,18.30
2019-03-28T01:04:24.041Z,21.07
2019-03-28T01:06:52.914Z,17.57
2019-03-28T01:09:22.805Z,20.47
2019-03-28T01:11:51.495Z,22.00
2019-03-28T01:14:21.381Z,19.77
2019-03-28T01:16:50.141Z,21.87
2019-03-28T01:19:19.022Z,19.50
2019-03-28T01:21:47.690Z,19.50
2019-03-28T01:24:16.612Z,22.37
2019-03-28T01:26:56.653Z,21.50
2019-03-28T01:29:16.254Z,26.70
2019-03-28T01:31:44.915Z,20.30
2019-03-28T01:34:13.630Z,24.43
2019-03-28T01:36:42.499Z,26.83
2019-03-28T01:39:11.166Z,22.40
2019-03-28T01:41:39.877Z,24.90
2019-03-28T01:44:09.094Z,23.63
2019-03-28T01:46:38.002Z,25.17
2019-03-28T01:49:06.676Z,23.80
2019-03-28T01:51:35.573Z,21.13
2019-03-28T01:54:04.705Z,22.77
2019-03-28T01:56:33.390Z,21.60
2019-03-28T01:59:02.361Z,25.00
2019-03-28T02:01:31.248Z,22.50
2019-03-28T02:03:59.906Z,26.20
2019-03-28T02:06:28.594Z,27.83
2019-03-28T02:08:57.484Z,26.63
2019-03-28T02:11:26.319Z,27.23
2019-03-28T02:13:55.042Z,28.63
2019-03-28T02:16:27.692Z,30.13
2019-03-28T02:18:56.574Z,28.77
2019-03-28T02:21:25.998Z,30.10
2019-03-28T02:23:56.010Z,26.30
2019-03-28T02:26:24.915Z,32.13
2019-03-28T02:28:53.738Z,31.43
2019-03-28T02:31:22.594Z,30.77
2019-03-28T02:33:51.685Z,27.90
2019-03-28T02:36:20.369Z,29.03
2019-03-28T02:38:49.069Z,26.90
2019-03-28T02:41:17.962Z,29.27
2019-03-28T02:43:46.627Z,30.90
2019-03-28T02:46:15.454Z,31.07
2019-03-28T02:48:44.184Z,29.67
2019-03-28T02:51:13.205Z,24.37
2019-03-28T02:53:41.893Z,26.57
2019-03-28T02:56:10.866Z,23.50
2019-03-28T02:58:39.631Z,20.57
2019-03-28T03:01:08.513Z,27.90
2019-03-28T03:03:37.195Z,28.77
2019-03-28T03:06:07.764Z,23.37
2019-03-28T03:08:37.469Z,24.03
2019-03-28T03:11:06.161Z,27.43
2019-03-28T03:13:35.035Z,27.37
2019-03-28T03:16:03.708Z,24.07
2019-03-28T03:18:33.736Z,23.63
2019-03-28T03:21:06.650Z,26.27
2019-03-28T03:23:35.404Z,25.33
2019-03-28T03:26:04.099Z,28.03
2019-03-28T03:28:32.895Z,25.90
2019-03-28T03:31:01.572Z,24.37
2019-03-28T03:33:30.495Z,23.47
2019-03-28T03:35:59.367Z,26.93
2019-03-28T03:38:28.103Z,33.30
2019-03-28T03:40:56.962Z,26.53
2019-03-28T03:43:25.835Z,27.40
2019-03-28T03:45:54.549Z,25.67
2019-03-28T03:48:23.448Z,27.63
2019-03-28T03:50:52.134Z,27.47
2019-03-28T03:53:20.823Z,33.90
2019-03-28T03:55:49.732Z,33.13
2019-03-28T03:58:18.893Z,29.93
2019-03-28T04:00:47.939Z,29.83
2019-03-28T04:03:16.942Z,32.70
2019-03-28T04:05:45.615Z,33.20
2019-03-28T04:08:14.445Z,28.97
2019-03-28T04:10:43.301Z,27.60
2019-03-28T04:13:11.994Z,28.47
2019-03-28T04:15:40.692Z,33.50
2019-03-28T04:18:09.547Z,32.23
2019-03-28T04:20:38.235Z,33.97
2019-03-28T04:23:12.082Z,29.10
2019-03-28T04:25:40.786Z,33.43
2019-03-28T04:28:09.478Z,32.20
2019-03-28T04:30:38.344Z,31.00
2019-03-28T04:33:07.018Z,32.43
2019-03-28T04:35:35.911Z,35.67
2019-03-28T04:38:04.820Z,34.13
2019-03-28T04:40:34.425Z,38.33
2019-03-28T04:43:03.635Z,29.93
2019-03-28T04:45:32.322Z,33.80
2019-03-28T04:48:01.523Z,33.17
2019-03-28T04:50:30.495Z,32.10
2019-03-28T04:52:59.211Z,39.37
2019-03-28T04:55:32.640Z,38.23
2019-03-28T04:58:01.420Z,42.50
2019-03-28T05:00:30.283Z,46.20
2019-03-28T05:02:58.977Z,40.23
2019-03-28T05:05:27.887Z,32.83
2019-03-28T05:07:56.583Z,35.33
2019-03-28T05:10:25.465Z,43.70
2019-03-28T05:12:54.156Z,38.33
2019-03-28T05:15:23.077Z,40.83
2019-03-28T05:17:52.053Z,33.23
2019-03-28T05:20:20.790Z,35.10
2019-03-28T05:22:49.475Z,38.30
2019-03-28T05:25:18.339Z,36.53
2019-03-28T05:27:48.999Z,36.33
2019-03-28T05:30:17.745Z,40.60
2019-03-28T05:32:46.528Z,40.27
2019-03-28T05:35:15.339Z,37.73
2019-03-28T05:37:44.017Z,32.03
2019-03-28T05:40:13.139Z,35.90
2019-03-28T05:42:41.871Z,38.73
2019-03-28T05:45:11.088Z,41.33
2019-03-28T05:47:39.917Z,35.13
2019-03-28T05:50:08.999Z,37.37
2019-03-28T05:52:37.696Z,40.40
2019-03-28T05:55:07.003Z,36.70
2019-03-28T05:57:35.707Z,36.20
2019-03-28T06:00:05.297Z,37.87
2019-03-28T06:02:34.335Z,39.87
2019-03-28T06:05:03.452Z,36.97
2019-03-28T06:07:32.296Z,40.87
2019-03-28T06:10:02.161Z,42.10
2019-03-28T06:12:30.890Z,36.90
2019-03-28T06:14:59.824Z,38.63
2019-03-28T06:17:28.677Z,39.93
2019-03-28T06:19:57.575Z,39.87
2019-03-28T06:22:26.242Z,44.67
2019-03-28T06:24:55.198Z,40.77
2019-03-28T06:27:24.008Z,39.90
2019-03-28T06:29:57.384Z,40.20
2019-03-28T06:32:26.115Z,49.37
2019-03-28T06:34:55.062Z,42.67
2019-03-28T06:37:23.797Z,43.43
2019-03-28T06:39:52.612Z,45.93
2019-03-28T06:42:21.438Z,45.40
2019-03-28T06:44:50.311Z,42.57
2019-03-28T06:47:21.053Z,41.40
2019-03-28T06:49:50.090Z,43.57
2019-03-28T06:52:18.801Z,44.77
2019-03-28T06:54:47.653Z,48.47
2019-03-28T06:57:18.859Z,41.10
2019-03-28T06:59:46.954Z,37.13
2019-03-28T07:02:15.861Z,42.37
2019-03-28T07:04:44.755Z,38.30
2019-03-28T07:07:13.456Z,40.73
2019-03-28T07:09:42.362Z,41.10
2019-03-28T07:12:11.049Z,36.13
2019-03-28T07:14:39.933Z,35.57
2019-03-28T07:17:08.724Z,36.80
2019-03-28T07:19:37.525Z,36.30
2019-03-28T07:22:06.222Z,36.70
2019-03-28T07:24:34.976Z,35.20
2019-03-28T07:27:03.803Z,33.70
2019-03-28T07:29:32.542Z,34.60
2019-03-28T07:32:01.270Z,31.70
2019-03-28T07:34:30.078Z,35.50
2019-03-28T07:36:58.767Z,31.37
2019-03-28T07:39:27.657Z,32.20
2019-03-28T07:41:56.650Z,27.67
2019-03-28T07:44:25.548Z,25.40
2019-03-28T07:46:54.261Z,27.70
2019-03-28T07:49:23.123Z,26.50
2019-03-28T07:51:51.830Z,30.23
2019-03-28T07:54:20.591Z,28.63
2019-03-28T07:56:49.523Z,30.90
2019-03-28T07:59:18.595Z,28.90
2019-03-28T08:01:47.310Z,33.27
2019-03-28T08:04:16.202Z,35.30
2019-03-28T08:06:50.145Z,29.50
2019-03-28T08:09:17.571Z,27.27
2019-03-28T08:11:48.272Z,28.63
2019-03-28T08:14:16.984Z,33.00
2019-03-28T08:16:45.680Z,23.93
2019-03-28T08:19:14.568Z,25.37
2019-03-28T08:21:43.259Z,21.77
2019-03-28T08:24:11.994Z,18.70
2019-03-28T08:26:40.822Z,16.40
2019-03-28T08:29:09.528Z,19.67
2019-03-28T08:31:40.967Z,16.87
2019-03-28T08:34:10.085Z,19.80
2019-03-28T08:36:39.016Z,17.60
2019-03-28T08:39:08.093Z,22.00
2019-03-28T08:41:36.754Z,18.23
2019-03-28T08:44:07.322Z,12.93
2019-03-28T08:46:36.305Z,14.00
2019-03-28T08:49:05.230Z,16.73
2019-03-28T08:51:34.131Z,17.50
2019-03-28T08:54:03.046Z,13.30
2019-03-28T08:56:31.887Z,14.70
2019-03-28T08:59:00.591Z,14.20
2019-03-28T09:01:31.262Z,17.87
2019-03-28T09:04:00.107Z,17.43
2019-03-28T09:06:30.819Z,18.50
2019-03-28T09:08:59.655Z,13.93
2019-03-28T09:11:28.522Z,12.23
2019-03-28T09:13:57.204Z,15.20
2019-03-28T09:16:25.945Z,16.17
2019-03-28T09:18:54.800Z,12.80
2019-03-28T09:21:23.594Z,15.30
2019-03-28T09:23:52.499Z,12.27
2019-03-28T09:26:21.331Z,11.77
2019-03-28T09:28:50.281Z,16.50
2019-03-28T09:31:20.439Z,15.33
2019-03-28T09:33:49.505Z,15.00
2019-03-28T09:36:18.174Z,14.47
2019-03-28T09:38:46.878Z,11.87
2019-03-28T09:41:15.873Z,13.00
2019-03-28T09:43:55.218Z,12.13
2019-03-28T09:46:15.409Z,8.57
2019-03-28T09:48:44.136Z,7.97
2019-03-28T09:51:12.829Z,7.97
2019-03-28T09:53:41.674Z,9.43
2019-03-28T09:56:10.579Z,7.73
2019-03-28T09:58:39.234Z,7.10
2019-03-28T10:01:08.156Z,7.40
2019-03-28T10:03:37.059Z,10.67
2019-03-28T10:06:05.803Z,12.00
2019-03-28T10:08:34.472Z,10.97
2019-03-28T10:11:03.444Z,8.40
2019-03-28T10:13:32.292Z,11.43
2019-03-28T10:16:01.154Z,11.77
2019-03-28T10:18:30.343Z,10.83
2019-03-28T10:20:59.321Z,9.20
2019-03-28T10:23:28.006Z,10.43
2019-03-28T10:25:57.106Z,8.77
2019-03-28T10:28:25.798Z,9.47
2019-03-28T10:30:54.666Z,12.60
2019-03-28T10:33:24.564Z,9.63
2019-03-28T10:35:53.401Z,12.03
2019-03-28T10:38:22.308Z,15.03
2019-03-28T10:40:51.198Z,10.97
2019-03-28T10:43:21.464Z,11.50
2019-03-28T10:45:51.391Z,11.33
2019-03-28T10:48:23.358Z,14.50
2019-03-28T10:50:51.073Z,12.30
2019-03-28T10:53:19.769Z,14.20
2019-03-28T10:55:48.611Z,12.10
2019-03-28T10:58:19.385Z,14.90
2019-03-28T11:00:48.232Z,12.07
2019-03-28T11:03:16.928Z,18.17
2019-03-28T11:05:45.765Z,14.80
2019-03-28T11:08:14.568Z,11.40
2019-03-28T11:10:43.271Z,12.43
2019-03-28T11:13:11.954Z,14.40
2019-03-28T11:15:40.839Z,12.83
2019-03-28T11:18:09.623Z,14.63
2019-03-28T11:20:40.072Z,15.87
2019-03-28T11:23:09.065Z,14.80
2019-03-28T11:25:37.737Z,15.43
2019-03-28T11:28:06.442Z,16.03
2019-03-28T11:30:35.516Z,16.67
2019-03-28T11:33:06.442Z,18.83
2019-03-28T11:35:35.005Z,17.70
2019-03-28T11:38:03.866Z,17.00
2019-03-28T11:40:32.759Z,18.87
2019-03-28T11:43:01.470Z,19.50
2019-03-28T11:45:34.962Z,20.13
2019-03-28T11:48:03.934Z,19.47
2019-03-28T11:50:32.635Z,18.90
2019-03-28T11:53:01.341Z,19.60
2019-03-28T11:55:30.217Z,17.80
2019-03-28T11:57:58.900Z,21.10
2019-03-28T12:00:27.903Z,20.83
2019-03-28T12:02:56.905Z,19.10
2019-03-28T12:05:25.789Z,21.53
2019-03-28T12:07:54.498Z,19.40
2019-03-28T12:10:23.205Z,18.33
2019-03-28T12:12:52.286Z,16.73
2019-03-28T12:15:20.986Z,17.20
2019-03-28T12:17:49.688Z,16.43
2019-03-28T12:20:18.552Z,16.93
2019-03-28T12:22:47.460Z,18.53
2019-03-28T12:25:16.153Z,16.03
2019-03-28T12:27:44.866Z,14.93
2019-03-28T12:30:16.229Z,16.03
2019-03-28T12:32:45.181Z,18.63
2019-03-28T12:35:13.898Z,15.47
2019-03-28T12:37:42.766Z,15.30
2019-03-28T12:40:12.693Z,22.53
2019-03-28T12:42:41.384Z,16.80
2019-03-28T12:45:12.259Z,17.03
2019-03-28T12:47:42.686Z,19.10
2019-03-28T12:50:12.888Z,16.73
2019-03-28T12:52:41.579Z,16.83
2019-03-28T12:55:10.687Z,19.13
2019-03-28T12:57:39.547Z,23.10
2019-03-28T13:00:09.271Z,16.53
2019-03-28T13:02:37.945Z,16.77
2019-03-28T13:05:08.264Z,15.90
2019-03-28T13:07:37.164Z,16.60
2019-03-28T13:10:07.272Z,16.07
2019-03-28T13:12:35.979Z,18.47
2019-03-28T13:15:06.564Z,15.63
2019-03-28T13:17:35.626Z,15.80
2019-03-28T13:20:05.788Z,17.13
2019-03-28T13:22:34.689Z,17.10
2019-03-28T13:25:03.981Z,15.63
2019-03-28T13:27:34.630Z,14.50
2019-03-28T13:30:04.489Z,14.27
2019-03-28T13:32:41.571Z,15.93
2019-03-28T13:35:04.755Z,15.77
2019-03-28T13:37:33.582Z,14.13
2019-03-28T13:40:02.389Z,16.30
2019-03-28T13:42:31.165Z,15.43
2019-03-28T13:45:00.151Z,14.50
2019-03-28T13:47:29.110Z,14.83
2019-03-28T13:49:58.115Z,15.97
2019-03-28T13:52:26.966Z,15.83
2019-03-28T13:54:55.648Z,18.10
2019-03-28T13:57:24.329Z,15.93
2019-03-28T13:59:53.142Z,17.27
2019-03-28T14:02:21.797Z,11.60
2019-03-28T14:04:50.480Z,11.80
2019-03-28T14:07:19.363Z,11.63
2019-03-28T14:09:48.310Z,10.60
2019-03-28T14:12:16.976Z,12.10
2019-03-28T14:14:45.783Z,10.93
2019-03-28T14:17:14.478Z,12.90
2019-03-28T14:19:43.265Z,13.70
2019-03-28T14:22:11.974Z,11.60
2019-03-28T14:24:43.458Z,11.27
2019-03-28T14:27:12.296Z,12.30
2019-03-28T14:29:41.002Z,13.80
2019-03-28T14:32:09.678Z,11.33
2019-03-28T14:34:39.954Z,12.80
2019-03-28T14:37:08.794Z,11.80
2019-03-28T14:39:37.482Z,12.07
2019-03-28T14:42:06.636Z,14.23
2019-03-28T14:44:35.302Z,13.47
2019-03-28T14:47:05.303Z,12.70
2019-03-28T14:49:34.252Z,12.07
2019-03-28T14:52:04.136Z,11.20
2019-03-28T14:54:33.235Z,9.97
2019-03-28T14:57:02.845Z,9.07
2019-03-28T14:59:34.607Z,9.47
2019-03-28T15:02:03.700Z,8.17
2019-03-28T15:04:32.516Z,8.83
2019-03-28T15:07:03.040Z,9.67
2019-03-28T15:09:33.326Z,9.87
2019-03-28T15:12:02.153Z,11.47
2019-03-28T15:14:30.863Z,7.40
2019-03-28T15:17:00.782Z,7.80
2019-03-28T15:19:29.642Z,5.63
2019-03-28T15:21:58.430Z,7.40
2019-03-28T15:24:27.339Z,8.33
2019-03-28T15:26:55.999Z,7.70
2019-03-28T15:29:24.935Z,7.83
2019-03-28T15:31:53.599Z,6.87
2019-03-28T15:34:22.287Z,6.37
2019-03-28T15:36:51.410Z,7.80
2019-03-28T15:39:21.829Z,8.77
2019-03-28T15:41:50.501Z,7.20
2019-03-28T15:44:19.184Z,7.47
2019-03-28T15:46:48.105Z,6.47
2019-03-28T15:49:16.897Z,9.20
2019-03-28T15:51:45.619Z,8.93
2019-03-28T15:54:14.487Z,6.90
2019-03-28T15:56:43.201Z,9.90
2019-03-28T15:59:16.208Z,9.67
2019-03-28T16:01:45.233Z,10.10
2019-03-28T16:04:14.110Z,10.07
2019-03-28T16:06:45.868Z,12.50
2019-03-28T16:09:18.103Z,10.43
2019-03-28T16:11:45.317Z,10.10
2019-03-28T16:14:14.124Z,7.90
2019-03-28T16:16:42.968Z,6.73
2019-03-28T16:19:11.667Z,5.27
2019-03-28T16:21:40.503Z,9.57
2019-03-28T16:24:09.229Z,9.73
2019-03-28T16:26:37.921Z,6.73
2019-03-28T16:29:08.107Z,8.03
2019-03-28T16:31:36.813Z,9.20
2019-03-28T16:34:07.228Z,10.20
2019-03-28T16:36:36.238Z,9.80
2019-03-28T16:39:06.723Z,8.87
2019-03-28T16:41:35.576Z,8.90
2019-03-28T16:44:04.662Z,6.73
2019-03-28T16:46:33.386Z,6.20
2019-03-28T16:49:04.010Z,11.50
2019-03-28T16:51:32.895Z,9.10
2019-03-28T16:54:02.715Z,10.47
2019-03-28T16:56:31.400Z,10.57
2019-03-28T16:59:00.286Z,12.53
2019-03-28T17:01:29.294Z,10.20
2019-03-28T17:03:58.175Z,12.10
2019-03-28T17:06:27.179Z,14.00
2019-03-28T17:08:57.206Z,10.93
2019-03-28T17:11:27.227Z,11.70
2019-03-28T17:13:55.916Z,13.90
2019-03-28T17:16:24.605Z,13.60
2019-03-28T17:18:53.500Z,12.23
2019-03-28T17:21:23.419Z,14.97
2019-03-28T17:23:52.350Z,13.40
2019-03-28T17:26:21.287Z,14.03
2019-03-28T17:28:49.975Z,13.60
2019-03-28T17:31:18.988Z,14.90
2019-03-28T17:33:47.971Z,12.57
2019-03-28T17:36:16.638Z,13.30
2019-03-28T17:38:46.576Z,14.53
2019-03-28T17:41:15.578Z,14.97
2019-03-28T17:43:44.408Z,17.30
2019-03-28T17:46:13.347Z,14.80
2019-03-28T17:48:42.043Z,14.13
2019-03-28T17:51:10.959Z,13.30
2019-03-28T17:53:39.855Z,15.60
2019-03-28T17:56:08.750Z,13.40
2019-03-28T17:58:37.453Z,13.10
2019-03-28T18:01:07.068Z,13.00
2019-03-28T18:03:35.941Z,15.47
2019-03-28T18:06:04.692Z,13.33
2019-03-28T18:08:33.415Z,14.00
2019-03-28T18:11:04.278Z,13.73
2019-03-28T18:13:33.175Z,13.47
2019-03-28T18:16:02.734Z,18.17
2019-03-28T18:18:31.954Z,15.20
2019-03-28T18:21:02.340Z,14.20
2019-03-28T18:23:32.812Z,18.17
2019-03-28T18:26:01.819Z,16.53
2019-03-28T18:28:31.670Z,14.40
2019-03-28T18:31:00.594Z,13.30
2019-03-28T18:33:29.458Z,16.43
2019-03-28T18:35:58.114Z,16.33
2019-03-28T18:38:27.059Z,15.80
2019-03-28T18:40:58.474Z,22.90
2019-03-28T18:43:27.625Z,17.80
2019-03-28T18:45:56.525Z,15.97
2019-03-28T18:48:29.534Z,16.87
2019-03-28T18:50:56.653Z,20.43
2019-03-28T18:53:25.451Z,16.10
2019-03-28T18:55:55.169Z,22.50
2019-03-28T18:58:25.711Z,18.07
2019-03-28T19:00:54.853Z,18.23
2019-03-28T19:03:23.753Z,19.57
2019-03-28T19:05:52.746Z,19.20
2019-03-28T19:08:21.444Z,17.03
2019-03-28T19:10:51.570Z,17.80
2019-03-28T19:13:20.411Z,15.80
2019-03-28T19:15:49.812Z,21.40
2019-03-28T19:18:18.949Z,21.83
2019-03-28T19:20:47.740Z,18.13
2019-03-28T19:23:16.549Z,20.37
2019-03-28T19:25:47.098Z,23.57
2019-03-28T19:28:28.229Z,15.27
2019-03-28T19:30:46.691Z,18.10
2019-03-28T19:33:16.635Z,18.10
2019-03-28T19:35:47.757Z,18.27
2019-03-28T19:38:17.000Z,24.40
2019-03-28T19:40:46.101Z,18.90
2019-03-28T19:43:20.802Z,20.57
2019-03-28T19:45:45.560Z,23.23
2019-03-28T19:48:14.613Z,23.50
2019-03-28T19:50:43.311Z,26.63
2019-03-28T19:53:12.398Z,24.67
2019-03-28T19:55:41.135Z,30.07
2019-03-28T19:58:13.743Z,27.60
2019-03-28T20:00:43.845Z,25.20
2019-03-28T20:03:13.152Z,23.73
2019-03-28T20:05:47.977Z,27.63
2019-03-28T20:08:15.809Z,24.80
2019-03-28T20:10:43.410Z,22.63
2019-03-28T20:13:12.259Z,23.13
2019-03-28T20:15:43.486Z,24.87
2019-03-28T20:18:13.465Z,28.33
2019-03-28T20:20:42.315Z,24.40
2019-03-28T20:23:11.037Z,28.57
2019-03-28T20:25:42.647Z,27.50
2019-03-28T20:28:10.455Z,30.03
2019-03-28T20:30:39.436Z,24.23
2019-03-28T20:33:08.643Z,27.43
2019-03-28T20:35:37.520Z,26.80
2019-03-28T20:38:06.219Z,29.40
2019-03-28T20:40:35.111Z,33.90
2019-03-28T20:43:03.776Z,31.30
2019-03-28T20:45:32.479Z,26.47
2019-03-28T20:48:01.393Z,33.60
2019-03-28T20:50:31.858Z,28.33
2019-03-28T20:53:03.970Z,33.73
2019-03-28T20:55:34.248Z,32.43
2019-03-28T20:58:03.132Z,31.43
2019-03-28T21:00:41.631Z,39.43
2019-03-28T21:03:10.417Z,29.83
2019-03-28T21:05:39.492Z,35.33
2019-03-28T21:08:08.388Z,38.27
2019-03-28T21:10:37.330Z,31.77
2019-03-28T21:13:06.190Z,31.60
2019-03-28T21:15:34.905Z,30.60
2019-03-28T21:18:07.370Z,26.80
2019-03-28T21:20:36.782Z,30.33
2019-03-28T21:23:05.659Z,33.10
2019-03-28T21:25:34.541Z,30.47
2019-03-28T21:28:03.449Z,36.23
2019-03-28T21:30:32.341Z,34.30
2019-03-28T21:33:01.063Z,32.03
2019-03-28T21:35:29.739Z,29.80
2019-03-28T21:37:58.610Z,29.30
2019-03-28T21:40:27.749Z,25.10
2019-03-28T21:42:56.796Z,30.60
2019-03-28T21:45:25.518Z,28.63
2019-03-28T21:47:55.323Z,34.73
2019-03-28T21:50:25.302Z,28.33
2019-03-28T21:52:55.910Z,29.10
2019-03-28T21:55:26.605Z,27.77
2019-03-28T21:57:55.724Z,35.73
2019-03-28T22:00:24.584Z,39.83
2019-03-28T22:02:53.279Z,39.70
2019-03-28T22:05:22.068Z,38.40
2019-03-28T22:07:50.778Z,41.20
2019-03-28T22:10:19.658Z,32.67
2019-03-28T22:12:48.417Z,36.03
2019-03-28T22:15:17.311Z,33.97
2019-03-28T22:17:46.254Z,34.30
2019-03-28T22:20:15.168Z,34.00
2019-03-28T22:22:43.837Z,28.93
2019-03-28T22:25:12.931Z,40.40
2019-03-28T22:27:41.618Z,35.47
2019-03-28T22:30:10.968Z,43.00
2019-03-28T22:32:39.810Z,37.50
2019-03-28T22:35:08.990Z,36.97
2019-03-28T22:37:38.070Z,36.90
2019-03-28T22:40:07.745Z,34.23
2019-03-28T22:42:36.673Z,34.87
2019-03-28T22:45:07.330Z,37.63
2019-03-28T22:47:36.132Z,37.30
2019-03-28T22:50:05.973Z,38.80
2019-03-28T22:52:36.228Z,36.47
2019-03-28T22:55:06.313Z,43.13
2019-03-28T22:57:38.077Z,41.87
2019-03-28T23:00:08.772Z,40.70
2019-03-28T23:02:37.627Z,33.40
2019-03-28T23:05:08.344Z,39.17
2019-03-28T23:07:37.242Z,36.63
2019-03-28T23:10:09.263Z,36.30
2019-03-28T23:12:38.092Z,36.13
2019-03-28T23:15:07.757Z,31.43
2019-03-28T23:17:36.670Z,33.00
2019-03-28T23:20:07.099Z,29.00
2019-03-28T23:22:35.769Z,37.90
2019-03-28T23:25:05.514Z,40.17
2019-03-28T23:27:34.239Z,41.83
2019-03-28T23:30:03.289Z,35.87
2019-03-28T23:32:33.397Z,35.97
2019-03-28T23:35:02.242Z,44.63
2019-03-28T23:37:30.958Z,40.67
2019-03-28T23:39:59.794Z,48.47
2019-03-28T23:42:28.483Z,61.37
2019-03-28T23:44:57.126Z,50.73
2019-03-28T23:47:26.015Z,51.60
2019-03-28T23:49:54.724Z,53.43
2019-03-28T23:52:23.364Z,58.20
2019-03-28T23:54:52.805Z,52.53
2019-03-28T23:57:21.558Z,47.03
2019-03-28T23:59:50.221Z,48.57
